Silver Bay, MN

2:28 AM CDT on October 22, 2017 (GMT -0500)
Silver Bay Municipal

Weather History for KBFW - January, 2014

Change the Weather History Date:

Tuesday, January 28, 2014

  Actual Average Record
Temperature  
Mean Temperature -11 °F -  
Max Temperature -2 °F 21 °F 37 °F (2008)
Min Temperature -20 °F 2 °F -20 °F (2009)
Degree Days  
Heating Degree Days 76    
Moisture  
Dew Point -18 °F    
Average Humidity 70    
Maximum Humidity 76    
Minimum Humidity 60    
Precipitation  
Precipitation 0.00 in - - ()
Sea Level Pressure  
Sea Level Pressure 29.95 in    
Wind  
Wind Speed 5 mph (WSW)    
Max Wind Speed 13 mph    
Max Gust Speed 22 mph    
Visibility 10 miles    
Events      
Averages and records for this station are not official NWS values.
T = Trace of Precipitation, MM = Missing Value Source: NWS Daily Summary

Daily Weather History Graph

Daily Weather History Graph

Search for Another Location

Airport or City:

Trip Planner

Search our weather history database for the weather conditions in past years. The results will help you decide how hot, cold, wet, or windy it might be!

Date:

Astronomy

Jan. 28, 2014 Rise Set
Actual Time 7:36 AM CST 5:01 PM CST
Civil Twilight 7:02 AM CST 5:34 PM CST
Nautical Twilight 6:25 AM CST 6:11 PM CST
Astronomical Twilight 5:49 AM CST 6:47 PM CST
Moon 5:20 AM CST (1/28) 2:49 PM CST (1/28)
Length of Visible Light 10h 32m
Length of Day
9h 25m
Waning Crescent, 7% of the Moon is Illuminated
Jan 28
Waning Crescent
Jan 30
New
Feb 6
First Quarter
Feb 14
Full
Feb 22
Last Quarter

Hourly Weather History & Observations

Time (CST) Temp. Windchill Dew Point Humidity Pressure Visibility Wind Dir Wind Speed Gust Speed Precip Events Conditions
12:13 AM -16.6 °F -32.9 °F -23.8 °F 70% 30.10 in 10.0 mi West 6.9 mph 20.7 mph N/A   Clear
12:33 AM -16.6 °F -35.7 °F -23.8 °F 70% 30.10 in 10.0 mi WNW 9.2 mph 17.3 mph N/A   Clear
12:53 AM -18.4 °F -35.1 °F -23.8 °F 76% 30.10 in 10.0 mi WNW 6.9 mph - N/A   Clear
1:13 AM -18.4 °F -33.4 °F -23.8 °F 76% 30.10 in 10.0 mi West 5.8 mph - N/A   Clear
1:33 AM -18.4 °F - -23.8 °F 76% 30.09 in 10.0 mi Calm Calm - N/A   Clear
1:53 AM -18.4 °F -28.9 °F -23.8 °F 76% 30.10 in 10.0 mi West 3.5 mph - N/A   Clear
2:13 AM -18.4 °F -33.4 °F -23.8 °F 76% 30.10 in 10.0 mi WNW 5.8 mph - N/A   Clear
2:33 AM -18.4 °F - -23.8 °F 76% 30.09 in 10.0 mi Calm Calm - N/A   Clear
2:53 AM -18.4 °F - -23.8 °F 76% 30.09 in 10.0 mi Calm Calm - N/A   Clear
3:13 AM -18.4 °F - -23.8 °F 76% 30.10 in 10.0 mi Calm Calm - N/A   Clear
3:33 AM -18.4 °F - -23.8 °F 76% 30.10 in 10.0 mi Calm Calm - N/A   Clear
3:53 AM -18.4 °F - -23.8 °F 76% 30.09 in 10.0 mi Calm Calm - N/A   Clear
4:13 AM -18.4 °F - -25.6 °F 70% 30.08 in 10.0 mi Calm Calm - N/A   Clear
4:33 AM -18.4 °F - -25.6 °F 70% 30.08 in 10.0 mi Calm Calm - N/A   Clear
4:53 AM -18.4 °F -28.9 °F -25.6 °F 70% 30.08 in 10.0 mi West 3.5 mph - N/A   Clear
5:13 AM -20.2 °F - -25.6 °F 76% 30.08 in 10.0 mi Calm Calm - N/A   Clear
5:33 AM -20.2 °F - -25.6 °F 76% 30.07 in 10.0 mi Calm Calm - N/A   Clear
5:53 AM -20.2 °F -33.5 °F -25.6 °F 76% 30.06 in 10.0 mi WSW 4.6 mph - N/A   Clear
6:13 AM -20.2 °F -30.9 °F -25.6 °F 76% 30.06 in 10.0 mi WSW 3.5 mph - N/A   Clear
6:33 AM -20.2 °F -33.5 °F -25.6 °F 76% 30.05 in 10.0 mi West 4.6 mph - N/A   Clear
6:53 AM -20.2 °F - -25.6 °F 76% 30.05 in 10.0 mi Calm Calm - N/A   Clear
7:14 AM -20.2 °F -30.9 °F -27.4 °F 69% 30.04 in 10.0 mi WSW 3.5 mph - N/A   Clear
7:33 AM -20.2 °F -30.9 °F -27.4 °F 69% 30.04 in 10.0 mi WSW 3.5 mph - N/A   Clear
7:53 AM -20.2 °F - -27.4 °F 69% 30.04 in 10.0 mi Calm Calm - N/A   Clear
8:13 AM -18.4 °F -33.4 °F -25.6 °F 70% 30.04 in 10.0 mi WSW 5.8 mph - N/A   Clear
8:33 AM -18.4 °F -36.6 °F -27.4 °F 63% 30.04 in 10.0 mi West 8.1 mph - N/A   Clear
8:53 AM -18.4 °F -35.1 °F -25.6 °F 70% 30.03 in 10.0 mi West 6.9 mph - N/A   Clear
9:13 AM -18.4 °F -35.1 °F -25.6 °F 70% 30.03 in 10.0 mi West 6.9 mph - N/A   Clear
9:33 AM -18.4 °F -31.4 °F -25.6 °F 70% 30.02 in 10.0 mi West 4.6 mph - N/A   Clear
9:54 AM -16.6 °F -26.8 °F -23.8 °F 70% 30.01 in 10.0 mi West 3.5 mph - N/A   Clear
10:13 AM -14.8 °F -34.6 °F -22.0 °F 70% 30.01 in 10.0 mi West 10.4 mph - N/A   Clear
10:33 AM -11.2 °F -31.1 °F -20.2 °F 64% 30.00 in 10.0 mi West 11.5 mph 19.6 mph N/A   Clear
10:53 AM -9.4 °F -26.8 °F -18.4 °F 65% 30.00 in 10.0 mi West 9.2 mph 20.7 mph N/A   Clear
11:13 AM -9.4 °F -26.8 °F -18.4 °F 65% 29.99 in 10.0 mi West 9.2 mph 19.6 mph N/A   Clear
11:33 AM -9.4 °F -27.9 °F -18.4 °F 65% 29.99 in 10.0 mi WSW 10.4 mph 19.6 mph N/A   Clear
11:53 AM -7.6 °F -26.6 °F -16.6 °F 65% 29.98 in 10.0 mi WSW 11.5 mph 19.6 mph N/A   Clear
12:13 PM -7.6 °F -23.4 °F -16.6 °F 65% 29.96 in 10.0 mi WSW 8.1 mph 20.7 mph N/A   Clear
12:33 PM -5.8 °F -21.2 °F -16.6 °F 60% 29.95 in 10.0 mi West 8.1 mph 17.3 mph N/A   Clear
12:53 PM -5.8 °F -14.5 °F -14.8 °F 65% 29.94 in 10.0 mi WSW 3.5 mph 21.9 mph N/A   Clear
1:13 PM -5.8 °F -21.2 °F -14.8 °F 65% 29.93 in 10.0 mi West 8.1 mph 16.1 mph N/A   Clear
1:33 PM -5.8 °F -18.4 °F -14.8 °F 65% 29.92 in 10.0 mi West 5.8 mph - N/A   Clear
1:53 PM -5.8 °F -19.9 °F -14.8 °F 65% 29.91 in 10.0 mi WSW 6.9 mph 20.7 mph N/A   Clear
2:13 PM -5.8 °F -19.9 °F -14.8 °F 65% 29.91 in 10.0 mi WSW 6.9 mph - N/A   Clear
2:33 PM -4.0 °F -16.3 °F -13.0 °F 65% 29.90 in 10.0 mi WSW 5.8 mph - N/A   Clear
2:53 PM -2.2 °F -14.2 °F -13.0 °F 60% 29.89 in 10.0 mi WSW 5.8 mph 19.6 mph N/A   Clear
3:13 PM -2.2 °F -20.7 °F -11.2 °F 66% 29.90 in 10.0 mi WSW 12.7 mph 17.3 mph N/A   Clear
3:33 PM -2.2 °F -18.9 °F -11.2 °F 66% 29.89 in 10.0 mi West 10.4 mph 21.9 mph N/A   Clear
3:54 PM -2.2 °F -14.2 °F -11.2 °F 66% 29.89 in 10.0 mi WSW 5.8 mph - N/A   Clear
4:13 PM -2.2 °F -18.9 °F -11.2 °F 66% 29.90 in 10.0 mi WSW 10.4 mph 20.7 mph N/A   Clear
4:33 PM -2.2 °F -15.6 °F -11.2 °F 66% 29.89 in 10.0 mi WSW 6.9 mph - N/A   Clear
4:53 PM -2.2 °F -15.6 °F -11.2 °F 66% 29.88 in 10.0 mi SW 6.9 mph 19.6 mph N/A   Clear
5:13 PM -2.2 °F -18.0 °F -11.2 °F 66% 29.88 in 10.0 mi WSW 9.2 mph 20.7 mph N/A   Clear
5:33 PM -2.2 °F -18.0 °F -11.2 °F 66% 29.87 in 10.0 mi WSW 9.2 mph 17.3 mph N/A   Clear
5:53 PM -2.2 °F -15.6 °F -11.2 °F 66% 29.86 in 10.0 mi WSW 6.9 mph 18.4 mph N/A   Clear
6:13 PM -2.2 °F -16.8 °F -11.2 °F 66% 29.85 in 10.0 mi SW 8.1 mph 16.1 mph N/A   Clear
6:33 PM -2.2 °F -15.6 °F -9.4 °F 71% 29.83 in 10.0 mi WSW 6.9 mph - N/A   Clear
6:53 PM -2.2 °F -15.6 °F -9.4 °F 71% 29.83 in 10.0 mi WSW 6.9 mph 17.3 mph N/A   Clear
7:13 PM -2.2 °F -14.2 °F -9.4 °F 71% 29.82 in 10.0 mi WSW 5.8 mph - N/A   Clear
7:33 PM -2.2 °F -16.8 °F -9.4 °F 71% 29.81 in 10.0 mi WSW 8.1 mph - N/A   Clear
7:53 PM -2.2 °F -15.6 °F -9.4 °F 71% 29.80 in 10.0 mi WSW 6.9 mph - N/A   Clear
8:13 PM -2.2 °F -12.5 °F -9.4 °F 71% 29.80 in 10.0 mi SW 4.6 mph 16.1 mph N/A   Clear
8:33 PM -2.2 °F -15.6 °F -9.4 °F 71% 29.80 in 10.0 mi WSW 6.9 mph - N/A   Clear
8:53 PM -2.2 °F -14.2 °F -9.4 °F 71% 29.81 in 10.0 mi SW 5.8 mph - N/A   Clear
9:13 PM -2.2 °F -15.6 °F -9.4 °F 71% 29.80 in 10.0 mi WSW 6.9 mph - N/A   Clear
9:33 PM -2.2 °F -18.0 °F -9.4 °F 71% 29.79 in 10.0 mi WSW 9.2 mph - N/A   Clear
9:53 PM -2.2 °F -18.0 °F -9.4 °F 71% 29.78 in 10.0 mi WSW 9.2 mph 18.4 mph N/A   Clear
10:13 PM -2.2 °F -19.9 °F -9.4 °F 71% 29.77 in 10.0 mi WSW 11.5 mph 18.4 mph N/A   Clear
10:33 PM -2.2 °F -14.2 °F -9.4 °F 71% 29.77 in 10.0 mi WSW 5.8 mph - N/A   Clear
10:53 PM -2.2 °F -12.5 °F -9.4 °F 71% 29.76 in 10.0 mi West 4.6 mph 20.7 mph N/A   Clear
11:13 PM -2.2 °F -15.6 °F -9.4 °F 71% 29.76 in 10.0 mi West 6.9 mph 19.6 mph N/A   Clear
11:33 PM -2.2 °F -19.9 °F -9.4 °F 71% 29.77 in 10.0 mi WSW 11.5 mph 18.4 mph N/A   Clear
11:53 PM -2.2 °F -16.8 °F -9.4 °F 71% 29.77 in 10.0 mi WSW 8.1 mph - N/A   Clear